Terminal Aerodrome Forecast
Issued by NWS Quad Cities IA IL

Home | Current Version | Previous Version | Text Only | Print | Product List | Glossary On
Versions: 1 2 3 4 5 6 7 8 9 10 11 12 13 14 15 16 17 18 19 20 21 22 23 24 25 26 27 28
000
FTUS43 KDVN 232100 AAA
TAFMLI
TAF AMD
KMLI 232142Z 2322/2418 19007KT P6SM VCSH OVC025
     FM240200 20003KT P6SM BKN020
     FM240600 21003KT 5SM BR FEW007 BKN020
     FM241000 21003KT 2SM BR BKN010
     FM241600 19006KT 6SM BR SCT007 SCT035=

USA.gov is the U.S. government's official web portal to all federal, state and local government web resources and services.